createdAt,value
2018-07-09T11:52:55.545Z,31328.00
2018-07-09T11:59:30.656Z,43872.00
2018-07-09T12:00:30.639Z,45056.00
2018-07-09T12:01:30.591Z,52416.00
2018-07-09T12:02:30.564Z,46048.00
2018-07-09T12:03:30.551Z,61664.00
2018-07-09T12:04:31.240Z,64224.00
2018-07-09T12:05:30.605Z,61824.00
2018-07-09T12:06:30.631Z,52640.00
2018-07-09T12:07:30.520Z,38592.00
2018-07-09T12:08:30.508Z,39744.00
2018-07-09T12:09:31.795Z,39584.00
2018-07-09T12:10:30.566Z,41632.00
2018-07-09T12:11:30.492Z,40704.00
2018-07-09T12:12:31.282Z,40640.00
2018-07-09T12:13:30.461Z,38784.00
2018-07-09T12:14:30.464Z,41824.00
2018-07-09T12:15:32.340Z,43616.00
2018-07-09T12:16:30.438Z,48032.00
2018-07-09T12:17:30.422Z,48832.00
2018-07-09T12:18:30.411Z,34016.00
2018-07-09T12:19:31.280Z,31392.00
2018-07-09T12:20:30.461Z,64256.00
2018-07-09T12:21:30.389Z,69696.00
2018-07-09T12:22:30.379Z,36768.00
2018-07-09T12:23:30.364Z,33280.00
2018-07-09T12:24:30.361Z,25696.00
2018-07-09T12:25:30.414Z,22048.00
2018-07-09T12:26:30.339Z,23584.00
2018-07-09T12:27:30.328Z,38432.00
2018-07-09T12:28:30.332Z,36992.00
2018-07-09T12:29:30.311Z,35936.00
2018-07-09T12:30:30.366Z,40128.00
2018-07-09T12:31:30.295Z,37344.00
2018-07-09T12:32:30.283Z,33024.00
2018-07-09T12:33:30.276Z,26688.00
2018-07-09T12:34:30.264Z,25376.00
2018-07-09T12:35:30.332Z,31552.00
2018-07-09T12:36:30.350Z,60288.00
2018-07-09T12:37:30.239Z,43584.00
2018-07-09T12:38:30.222Z,67168.00
2018-07-09T12:39:30.220Z,84288.00
2018-07-09T12:40:30.354Z,88736.00
2018-07-09T12:41:30.229Z,59072.00
2018-07-09T12:42:30.186Z,63648.00
2018-07-09T12:43:30.178Z,52960.00
2018-07-09T12:44:30.172Z,52416.00
2018-07-09T12:45:30.227Z,43104.00
2018-07-09T12:46:30.168Z,51968.00
2018-07-09T12:47:30.152Z,51968.00
2018-07-09T12:48:30.133Z,43008.00
2018-07-09T12:49:30.124Z,38016.00
2018-07-09T12:50:30.181Z,34048.00
2018-07-09T12:51:30.105Z,37184.00
2018-07-09T12:52:30.097Z,40896.00
2018-07-09T12:53:30.083Z,71360.00
2018-07-09T12:54:30.080Z,92640.00
2018-07-09T12:55:30.133Z,102624.00
2018-07-09T12:56:30.060Z,123744.00
2018-07-09T12:57:30.050Z,122752.00
2018-07-09T12:58:30.045Z,37376.00
2018-07-09T12:59:30.037Z,48480.00
2018-07-09T13:00:30.096Z,45824.00
2018-07-09T13:01:30.832Z,84800.00
2018-07-09T13:02:30.010Z,134080.00
2018-07-09T13:03:30.000Z,80224.00
2018-07-09T13:04:30.008Z,58592.00
2018-07-09T13:05:30.049Z,66944.00
2018-07-09T13:06:29.976Z,112064.00
2018-07-09T13:07:29.998Z,60224.00
2018-07-09T13:08:29.955Z,62432.00
2018-07-09T13:09:30.010Z,87200.00
2018-07-09T13:10:30.009Z,82592.00
2018-07-09T13:11:29.927Z,52928.00
2018-07-09T13:12:29.919Z,46496.00
2018-07-09T13:13:38.067Z,38784.00
2018-07-09T13:14:29.930Z,43648.00
2018-07-09T13:15:29.975Z,51392.00
2018-07-09T13:16:29.882Z,71296.00
2018-07-09T13:17:29.874Z,75520.00
2018-07-09T13:18:29.866Z,58880.00
2018-07-09T13:19:29.862Z,52128.00
2018-07-09T13:20:29.848Z,105888.00
2018-07-09T13:21:29.908Z,82208.00
2018-07-09T13:22:29.834Z,61696.00
2018-07-09T13:23:29.823Z,120160.00
2018-07-09T13:24:29.813Z,49856.00
2018-07-09T13:25:29.831Z,72320.00
2018-07-09T13:26:29.886Z,72640.00
2018-07-09T13:27:29.787Z,35872.00
2018-07-09T13:28:29.783Z,33728.00
2018-07-09T13:29:29.768Z,34208.00
2018-07-09T13:30:29.762Z,36992.00
2018-07-09T13:31:29.817Z,69664.00
2018-07-09T13:32:29.743Z,46144.00
2018-07-09T13:33:29.731Z,51360.00
2018-07-09T13:34:30.308Z,43328.00
2018-07-09T13:35:29.720Z,47296.00
2018-07-09T13:36:29.773Z,58080.00
2018-07-09T13:37:29.719Z,98304.00
2018-07-09T13:38:29.692Z,85600.00
2018-07-09T13:39:29.678Z,85088.00
2018-07-09T13:40:29.673Z,40096.00
2018-07-09T13:41:29.746Z,35552.00
2018-07-09T13:42:29.656Z,31744.00
2018-07-09T13:43:29.645Z,30336.00
2018-07-09T13:44:29.641Z,29600.00
2018-07-09T13:45:29.623Z,29312.00
2018-07-09T13:46:29.709Z,37152.00
2018-07-09T13:47:29.606Z,43040.00
2018-07-09T13:48:29.597Z,47072.00
2018-07-09T13:49:29.586Z,56512.00
2018-07-09T13:50:29.583Z,80000.00
2018-07-09T13:51:29.646Z,76224.00
2018-07-09T13:52:29.562Z,67360.00
2018-07-09T13:53:29.550Z,59456.00
2018-07-09T13:54:29.561Z,64256.00
2018-07-09T13:55:30.321Z,60832.00
2018-07-09T13:56:29.591Z,54400.00
2018-07-09T13:57:29.520Z,72672.00
2018-07-09T13:58:29.509Z,69088.00
2018-07-09T13:59:29.498Z,65568.00
2018-07-09T14:00:29.492Z,63200.00
2018-07-09T14:01:29.544Z,55136.00
2018-07-09T14:02:29.470Z,53120.00
2018-07-09T14:03:29.463Z,51360.00
2018-07-09T14:04:29.448Z,50880.00
2018-07-09T14:05:29.450Z,47936.00
2018-07-09T14:06:29.510Z,43328.00
2018-07-09T14:07:29.422Z,52160.00
2018-07-09T14:08:29.414Z,61152.00
2018-07-09T14:09:29.406Z,56416.00
2018-07-09T14:10:29.401Z,47872.00
2018-07-09T14:11:29.457Z,29600.00
2018-07-09T14:12:29.375Z,29184.00
2018-07-09T14:13:29.382Z,34880.00
2018-07-09T14:14:29.361Z,34560.00
2018-07-09T14:15:29.350Z,35840.00
2018-07-09T14:16:29.895Z,34176.00
2018-07-09T14:17:29.334Z,32992.00
2018-07-09T14:18:29.388Z,31552.00
2018-07-09T14:19:29.316Z,32224.00
2018-07-09T14:20:29.303Z,34432.00
2018-07-09T14:21:29.361Z,39392.00
2018-07-09T14:22:29.281Z,40768.00
2018-07-09T14:23:29.284Z,55936.00
2018-07-09T14:24:29.264Z,53056.00
2018-07-09T14:25:29.259Z,65056.00
2018-07-09T14:26:29.314Z,68512.00
2018-07-09T14:27:29.239Z,67296.00
2018-07-09T14:28:29.226Z,57376.00
2018-07-09T14:29:29.219Z,50848.00
2018-07-09T14:30:29.216Z,48032.00
2018-07-09T14:31:29.306Z,52576.00
2018-07-09T14:32:29.189Z,62624.00
2018-07-09T14:33:29.189Z,67168.00
2018-07-09T14:34:29.180Z,67072.00
2018-07-09T14:35:29.165Z,60064.00
2018-07-09T14:36:29.221Z,38368.00
2018-07-09T14:37:29.164Z,40480.00
2018-07-09T14:38:29.131Z,61856.00
2018-07-09T14:39:29.129Z,50752.00
2018-07-09T14:40:29.121Z,31904.00
2018-07-09T14:41:29.174Z,35616.00
2018-07-09T14:42:29.100Z,47296.00
2018-07-09T14:43:29.092Z,31008.00
2018-07-09T14:44:29.078Z,37536.00
2018-07-09T14:45:29.070Z,30112.00
2018-07-09T14:46:29.151Z,29760.00
2018-07-09T14:47:29.049Z,27840.00
2018-07-09T14:48:29.041Z,24064.00
2018-07-09T14:49:29.030Z,21856.00
2018-07-09T14:50:29.022Z,20288.00
2018-07-09T14:51:29.082Z,20032.00
2018-07-09T14:52:29.003Z,18976.00
2018-07-09T14:53:28.989Z,18432.00
2018-07-09T14:54:28.983Z,18048.00
2018-07-09T14:55:28.987Z,17984.00
2018-07-09T14:56:37.207Z,18112.00
2018-07-09T14:57:36.479Z,17472.00
2018-07-09T14:58:28.942Z,16444.00
2018-07-09T14:59:36.488Z,16016.00
2018-07-09T15:00:36.486Z,15436.00
2018-07-09T15:01:28.998Z,15212.00
2018-07-09T15:02:28.935Z,15192.00
2018-07-09T15:03:28.892Z,15460.00
2018-07-09T15:04:28.887Z,16104.00
2018-07-09T15:05:28.944Z,16628.00
2018-07-09T15:06:28.861Z,17280.00
2018-07-09T15:07:28.967Z,17504.00
2018-07-09T15:08:28.842Z,17664.00
2018-07-09T15:09:28.896Z,17728.00
2018-07-09T15:10:28.825Z,17952.00
2018-07-09T15:11:28.814Z,18368.00
2018-07-09T15:12:28.872Z,18496.00
2018-07-09T15:13:28.828Z,18240.00
2018-07-09T15:14:28.788Z,17600.00
2018-07-09T15:15:28.775Z,16680.00
2018-07-09T15:16:28.766Z,16068.00
2018-07-09T15:17:28.816Z,15928.00
2018-07-09T15:18:28.741Z,16088.00
2018-07-09T15:19:28.739Z,16344.00
2018-07-09T15:20:28.722Z,16452.00
2018-07-09T15:21:28.717Z,16456.00
2018-07-09T15:22:29.061Z,16632.00
2018-07-09T15:23:28.698Z,17248.00
2018-07-09T15:24:28.686Z,17856.00
2018-07-09T15:25:28.678Z,18400.00
2018-07-09T15:26:28.667Z,18560.00
2018-07-09T15:27:28.719Z,18368.00
2018-07-09T15:28:28.647Z,18112.00
2018-07-09T15:29:28.634Z,17920.00
2018-07-09T15:30:28.627Z,17856.00
2018-07-09T15:31:28.694Z,17824.00
2018-07-09T15:32:28.672Z,17728.00
2018-07-09T15:33:28.594Z,17600.00
2018-07-09T15:34:28.581Z,17248.00
2018-07-09T15:35:28.578Z,16680.00
2018-07-09T15:36:28.575Z,16184.00
2018-07-09T15:37:28.616Z,15600.00
2018-07-09T15:38:28.542Z,15092.00
2018-07-09T15:39:28.534Z,15152.00
2018-07-09T15:40:28.528Z,15580.00
2018-07-09T15:41:28.511Z,15948.00
2018-07-09T15:42:28.574Z,16004.00
2018-07-09T15:43:29.478Z,15964.00
2018-07-09T15:44:28.481Z,15920.00
2018-07-09T15:45:28.489Z,15904.00
2018-07-09T15:46:28.462Z,16052.00
2018-07-09T15:47:28.521Z,16028.00
2018-07-09T15:48:28.453Z,15736.00
2018-07-09T15:49:28.431Z,15680.00
2018-07-09T15:50:28.421Z,15728.00
2018-07-09T15:51:28.410Z,15864.00
2018-07-09T15:52:28.475Z,15892.00
2018-07-09T15:53:28.393Z,15780.00
2018-07-09T15:54:28.392Z,15712.00
2018-07-09T15:55:28.389Z,15756.00
2018-07-09T15:56:28.369Z,15892.00
2018-07-09T15:57:28.416Z,16112.00
2018-07-09T15:58:28.341Z,16296.00
2018-07-09T15:59:28.332Z,16384.00
2018-07-09T16:00:28.321Z,16372.00
2018-07-09T16:01:28.309Z,16220.00
2018-07-09T16:02:28.364Z,16276.00
2018-07-09T16:03:28.311Z,16376.00
2018-07-09T16:04:28.976Z,16400.00
2018-07-09T16:05:28.268Z,16392.00
2018-07-09T16:06:28.260Z,16260.00
2018-07-09T16:07:28.312Z,16108.00
2018-07-09T16:08:28.237Z,15920.00
2018-07-09T16:09:28.226Z,15736.00
2018-07-09T16:10:28.218Z,15424.00
2018-07-09T16:11:28.207Z,14976.00
2018-07-09T16:12:28.259Z,14472.00
2018-07-09T16:13:28.187Z,14176.00
2018-07-09T16:14:28.176Z,14056.00
2018-07-09T16:15:28.163Z,13892.00
2018-07-09T16:16:28.158Z,13668.00
2018-07-09T16:17:28.212Z,13452.00
2018-07-09T16:18:28.135Z,13284.00
2018-07-09T16:19:28.146Z,13248.00
2018-07-09T16:20:28.174Z,13480.00
2018-07-09T16:21:28.111Z,13764.00
2018-07-09T16:22:28.160Z,13908.00
2018-07-09T16:23:28.082Z,13940.00
2018-07-09T16:24:28.074Z,14044.00
2018-07-09T16:25:28.980Z,14244.00
2018-07-09T16:26:28.055Z,14400.00
2018-07-09T16:27:28.131Z,14440.00
2018-07-09T16:28:28.033Z,14336.00
2018-07-09T16:29:28.050Z,14152.00
2018-07-09T16:30:28.015Z,13976.00
2018-07-09T16:31:28.005Z,13828.00
2018-07-09T16:32:28.055Z,13792.00
2018-07-09T16:33:28.976Z,13632.00
2018-07-09T16:34:27.985Z,13372.00
2018-07-09T16:35:27.969Z,13124.00
2018-07-09T16:36:27.994Z,12948.00
2018-07-09T16:37:27.939Z,12708.00
2018-07-09T16:38:28.005Z,12400.00
2018-07-09T16:39:27.940Z,12096.00
2018-07-09T16:40:27.908Z,11852.00
2018-07-09T16:41:27.900Z,11736.00
2018-07-09T16:42:27.951Z,11864.00
2018-07-09T16:43:27.944Z,11900.00
2018-07-09T16:44:27.891Z,11908.00
2018-07-09T16:45:27.858Z,11976.00
2018-07-09T16:46:28.486Z,12088.00
2018-07-09T16:47:27.836Z,12012.00
2018-07-09T16:48:27.894Z,12012.00
2018-07-09T16:49:27.815Z,11876.00
2018-07-09T16:50:27.809Z,11852.00
2018-07-09T16:51:27.802Z,11924.00
2018-07-09T16:52:27.786Z,11944.00
2018-07-09T16:53:27.842Z,11888.00
2018-07-09T16:54:27.775Z,11656.00
2018-07-09T16:55:27.756Z,11396.00
2018-07-09T16:56:27.748Z,11076.00
2018-07-09T16:57:27.734Z,10740.00
2018-07-09T16:58:27.791Z,10392.00
2018-07-09T16:59:27.712Z,10156.00
2018-07-09T17:00:27.701Z,10032.00
2018-07-09T17:01:27.693Z,9844.00
2018-07-09T17:02:27.688Z,9428.00
2018-07-09T17:03:27.737Z,8756.00
2018-07-09T17:04:27.665Z,7968.00
2018-07-09T17:05:27.661Z,7260.00
2018-07-09T17:06:27.640Z,6640.00
2018-07-09T17:07:28.479Z,6172.00
2018-07-09T17:08:27.729Z,5716.00
2018-07-09T17:09:27.662Z,5204.00
2018-07-09T17:10:27.609Z,4660.00
2018-07-09T17:11:27.590Z,4216.00
2018-07-09T17:12:27.589Z,3896.00
2018-07-09T17:13:27.663Z,3688.00
2018-07-09T17:14:27.562Z,3528.00
2018-07-09T17:15:27.567Z,3372.00
2018-07-09T17:16:27.543Z,3208.00
2018-07-09T17:17:27.529Z,3084.00
2018-07-09T17:18:27.593Z,3056.00
2018-07-09T17:19:27.507Z,3044.00
2018-07-09T17:20:27.499Z,3028.00
2018-07-09T17:21:27.496Z,3136.00
2018-07-09T17:22:27.487Z,3268.00
2018-07-09T17:23:27.532Z,3340.00
2018-07-09T17:24:27.463Z,3328.00
2018-07-09T17:25:27.510Z,3336.00
2018-07-09T17:26:27.496Z,3284.00
2018-07-09T17:27:27.501Z,3048.00
2018-07-09T17:28:28.062Z,2756.00
2018-07-09T17:29:27.405Z,2460.00
2018-07-09T17:30:27.439Z,2176.00
2018-07-09T17:31:27.386Z,1932.00
2018-07-09T17:32:27.383Z,1752.00
2018-07-09T17:33:27.543Z,1600.00
2018-07-09T17:34:27.352Z,1468.00
2018-07-09T17:35:27.350Z,1384.00
2018-07-09T17:36:27.415Z,1372.00
2018-07-09T17:37:27.324Z,1424.00
2018-07-09T17:38:27.377Z,1500.00
2018-07-09T17:39:27.342Z,1588.00
2018-07-09T17:40:27.294Z,1736.00
2018-07-09T17:41:27.289Z,1920.00
2018-07-09T17:42:27.269Z,2132.00
2018-07-09T17:43:27.330Z,2280.00
2018-07-09T17:44:27.250Z,2356.00
2018-07-09T17:45:27.258Z,2472.00
2018-07-09T17:46:27.257Z,2572.00
2018-07-09T17:47:27.227Z,2688.00
2018-07-09T17:48:27.296Z,2868.00
2018-07-09T17:49:27.984Z,2852.00
2018-07-09T17:50:27.192Z,2752.00
2018-07-09T17:51:27.292Z,2636.00
2018-07-09T17:52:27.165Z,2460.00
2018-07-09T17:53:27.226Z,2396.00
2018-07-09T17:54:27.145Z,2444.00
2018-07-09T17:55:27.139Z,2356.00
2018-07-09T17:56:27.128Z,2180.00
2018-07-09T17:57:27.117Z,2056.00
2018-07-09T17:58:27.167Z,2076.00
2018-07-09T17:59:27.129Z,2076.00
2018-07-09T18:00:27.081Z,1968.00
2018-07-09T18:01:27.070Z,1880.00
2018-07-09T18:02:27.064Z,1776.00
2018-07-09T18:03:27.121Z,1700.00
2018-07-09T18:04:27.045Z,1736.00
2018-07-09T18:05:27.039Z,1840.00
2018-07-09T18:06:27.021Z,2028.00
2018-07-09T18:07:27.009Z,2292.00
2018-07-09T18:08:27.062Z,2488.00
2018-07-09T18:09:27.000Z,2552.00
2018-07-09T18:10:27.537Z,2652.00
2018-07-09T18:11:26.970Z,2704.00
2018-07-09T18:12:35.222Z,2744.00
2018-07-09T18:13:27.032Z,2772.00
2018-07-09T18:14:27.025Z,2820.00
2018-07-09T18:15:26.988Z,2828.00
2018-07-09T18:16:26.915Z,2848.00
2018-07-09T18:17:26.915Z,2896.00
2018-07-09T18:18:26.901Z,2940.00
2018-07-09T18:19:26.967Z,2976.00
2018-07-09T18:20:26.881Z,3052.00
2018-07-09T18:21:26.920Z,3172.00
2018-07-09T18:22:26.852Z,3300.00
2018-07-09T18:23:26.840Z,3376.00
2018-07-09T18:24:26.906Z,3500.00
2018-07-09T18:25:26.832Z,3656.00
2018-07-09T18:26:26.810Z,3792.00
2018-07-09T18:27:26.807Z,3880.00
2018-07-09T18:28:26.810Z,3928.00
2018-07-09T18:29:26.857Z,3924.00
2018-07-09T18:30:26.768Z,3892.00
2018-07-09T18:31:26.763Z,3872.00
2018-07-09T18:32:26.785Z,3836.00
2018-07-09T18:33:35.648Z,3800.00
2018-07-09T18:34:35.385Z,3704.00
2018-07-09T18:35:36.341Z,3592.00
2018-07-09T18:36:34.241Z,3496.00
2018-07-09T18:37:26.753Z,3412.00
2018-07-09T18:38:26.842Z,3300.00
2018-07-09T18:39:26.741Z,3184.00
2018-07-09T18:40:26.736Z,3064.00
2018-07-09T18:41:34.280Z,2972.00
2018-07-09T18:42:34.894Z,2940.00
2018-07-09T18:43:34.996Z,2904.00
2018-07-09T18:44:34.546Z,2828.00
2018-07-09T18:45:34.148Z,2796.00
2018-07-09T18:46:34.253Z,2740.00
2018-07-09T18:47:26.722Z,2676.00
2018-07-09T18:48:26.634Z,2612.00
2018-07-09T18:49:26.657Z,2500.00
2018-07-09T18:50:26.567Z,2400.00
2018-07-09T18:51:26.550Z,2348.00
2018-07-09T18:52:26.541Z,2260.00
2018-07-09T18:53:26.528Z,2112.00
2018-07-09T18:54:26.978Z,1940.00
2018-07-09T18:55:26.538Z,1760.00
2018-07-09T18:56:26.508Z,1620.00
2018-07-09T18:57:26.493Z,1528.00
2018-07-09T18:58:26.512Z,1480.00
2018-07-09T18:59:29.400Z,1444.00
2018-07-09T19:00:26.456Z,1404.00
2018-07-09T19:01:26.451Z,1364.00
2018-07-09T19:02:26.460Z,1348.00
2018-07-09T19:03:26.423Z,1360.00
2018-07-09T19:04:26.484Z,1356.00
2018-07-09T19:05:26.400Z,1292.00
2018-07-09T19:06:26.392Z,1208.00
2018-07-09T19:07:26.384Z,1136.00
2018-07-09T19:08:26.917Z,1076.00
2018-07-09T19:09:26.431Z,1016.00
2018-07-09T19:10:26.373Z,944.00
2018-07-09T19:11:26.343Z,876.00
2018-07-09T19:12:26.337Z,808.00
2018-07-09T19:13:26.904Z,736.00
2018-07-09T19:14:26.379Z,688.00
2018-07-09T19:15:26.300Z,656.00
2018-07-09T19:16:26.290Z,624.00
2018-07-09T19:17:26.279Z,576.00
2018-07-09T19:18:26.285Z,508.00
2018-07-09T19:19:26.927Z,440.00
2018-07-09T19:20:26.249Z,376.00
2018-07-09T19:21:26.980Z,332.00
2018-07-09T19:22:26.253Z,292.00
2018-07-09T19:23:26.253Z,256.00
2018-07-09T19:24:26.273Z,228.00
2018-07-09T19:25:26.230Z,196.00
2018-07-09T19:26:26.397Z,172.00
2018-07-09T19:27:33.835Z,148.00
2018-07-09T19:28:26.346Z,132.00
2018-07-09T19:29:26.306Z,124.00
2018-07-09T19:30:26.170Z,116.00
2018-07-09T19:31:26.138Z,108.00
2018-07-09T19:32:26.127Z,104.00
2018-07-09T19:33:26.113Z,96.00
2018-07-09T19:34:26.179Z,88.00
2018-07-09T19:35:26.097Z,88.00
2018-07-09T19:36:26.174Z,84.00
2018-07-09T19:37:26.295Z,84.00
2018-07-09T19:38:26.064Z,84.00
2018-07-09T19:39:34.544Z,80.00
2018-07-09T19:40:26.163Z,76.00
2018-07-09T19:41:26.096Z,76.00
2018-07-09T19:42:26.048Z,76.00
2018-07-09T19:43:26.017Z,72.00
2018-07-09T19:44:26.072Z,72.00
2018-07-09T19:45:26.016Z,72.00
2018-07-09T19:46:25.972Z,72.00
2018-07-09T19:47:26.479Z,68.00
2018-07-09T19:48:25.951Z,68.00
2018-07-09T19:49:34.321Z,64.00
2018-07-09T19:50:26.061Z,60.00
2018-07-09T19:51:25.938Z,56.00
2018-07-09T19:52:27.554Z,56.00
2018-07-09T19:53:25.903Z,52.00
2018-07-09T19:54:25.969Z,48.00
2018-07-09T19:55:25.942Z,44.00
2018-07-09T19:56:25.973Z,40.00
2018-07-09T19:57:25.872Z,32.00
2018-07-09T19:58:25.842Z,32.00
2018-07-09T19:59:25.863Z,32.00
2018-07-09T20:00:25.892Z,28.00
2018-07-09T20:01:25.833Z,28.00
2018-07-09T20:02:25.821Z,24.00
2018-07-09T20:03:25.868Z,20.00
2018-07-09T20:04:25.785Z,20.00
2018-07-09T20:05:25.837Z,20.00
2018-07-09T20:06:25.762Z,16.00
2018-07-09T20:07:25.751Z,16.00
2018-07-09T20:08:25.743Z,16.00
2018-07-09T20:09:25.729Z,16.00
2018-07-09T20:10:26.097Z,16.00
2018-07-09T20:11:25.720Z,12.00
2018-07-09T20:12:25.699Z,12.00
2018-07-09T20:13:25.689Z,8.00
2018-07-09T20:14:25.690Z,8.00
2018-07-09T20:15:25.759Z,8.00
2018-07-09T20:16:25.660Z,8.00
2018-07-09T20:17:25.646Z,4.00
2018-07-09T20:18:25.633Z,4.00
2018-07-09T20:19:25.624Z,4.00
2018-07-09T20:20:25.682Z,4.00
2018-07-09T20:21:25.602Z,4.00
2018-07-09T20:22:25.596Z,4.00
2018-07-09T20:23:26.542Z,4.00
2018-07-09T20:24:25.569Z,0.00
2018-07-09T20:25:25.627Z,0.00
2018-07-09T20:26:25.550Z,4.00
2018-07-09T20:27:25.539Z,4.00
2018-07-09T20:28:25.530Z,0.00
2018-07-09T20:29:25.522Z,0.00
2018-07-09T20:30:25.577Z,0.00
2018-07-09T20:31:28.009Z,0.00
2018-07-09T20:32:25.490Z,0.00
2018-07-09T20:33:25.492Z,0.00
2018-07-09T20:34:25.467Z,0.00
2018-07-09T20:35:25.593Z,0.00
2018-07-09T20:36:25.447Z,0.00
2018-07-09T20:37:25.436Z,0.00
2018-07-09T20:38:25.431Z,0.00
2018-07-09T20:39:25.415Z,0.00
2018-07-09T20:40:25.472Z,0.00
2018-07-09T20:41:25.395Z,0.00
2018-07-09T20:42:25.382Z,0.00
2018-07-09T20:43:25.375Z,0.00
2018-07-09T20:44:25.368Z,0.00
2018-07-09T20:45:25.432Z,0.00
2018-07-09T20:46:25.347Z,0.00
2018-07-09T20:47:25.328Z,0.00
2018-07-09T20:48:25.326Z,0.00
2018-07-09T20:49:25.308Z,0.00
2018-07-09T20:50:25.364Z,0.00
2018-07-09T20:51:25.292Z,0.00
2018-07-09T20:52:26.010Z,0.00
2018-07-09T20:53:25.266Z,0.00
2018-07-09T20:54:25.260Z,0.00
2018-07-09T20:55:25.320Z,0.00
2018-07-09T20:56:25.234Z,0.00
2018-07-09T20:57:25.229Z,0.00
2018-07-09T20:58:25.212Z,0.00
2018-07-09T20:59:25.204Z,0.00
2018-07-09T21:00:25.283Z,0.00
2018-07-09T21:01:25.180Z,0.00
2018-07-09T21:02:25.171Z,0.00
2018-07-09T21:03:25.158Z,0.00
2018-07-09T21:04:25.157Z,0.00
2018-07-09T21:05:25.634Z,0.00
2018-07-09T21:06:25.141Z,0.00
2018-07-09T21:07:25.113Z,0.00
2018-07-09T21:08:25.105Z,0.00
2018-07-09T21:09:25.101Z,0.00
2018-07-09T21:10:26.018Z,0.00
2018-07-09T21:11:25.072Z,0.00
2018-07-09T21:12:25.077Z,0.00
2018-07-09T21:13:26.009Z,0.00
2018-07-09T21:14:25.053Z,0.00
2018-07-09T21:15:25.227Z,0.00
2018-07-09T21:16:25.067Z,0.00
2018-07-09T21:17:25.009Z,0.00
2018-07-09T21:18:25.003Z,0.00
2018-07-09T21:19:24.984Z,0.00
2018-07-09T21:20:25.048Z,0.00
2018-07-09T21:21:24.964Z,0.00
2018-07-09T21:22:24.964Z,0.00
2018-07-09T21:23:24.945Z,0.00
2018-07-09T21:24:24.931Z,0.00
2018-07-09T21:25:25.090Z,0.00
2018-07-09T21:26:24.912Z,0.00
2018-07-09T21:27:24.900Z,0.00
2018-07-09T21:28:24.904Z,0.00
2018-07-09T21:29:24.883Z,0.00
2018-07-09T21:30:24.943Z,0.00
2018-07-09T21:31:24.859Z,0.00
2018-07-09T21:32:24.848Z,0.00
2018-07-09T21:33:24.837Z,0.00
2018-07-09T21:34:25.519Z,0.00
2018-07-09T21:35:26.715Z,0.00
2018-07-09T21:36:24.805Z,0.00
2018-07-09T21:37:24.880Z,0.00
2018-07-09T21:38:24.782Z,0.00
2018-07-09T21:39:24.819Z,0.00
2018-07-09T21:40:24.850Z,0.00
2018-07-09T21:41:24.751Z,0.00
2018-07-09T21:42:24.749Z,0.00
2018-07-09T21:43:24.732Z,0.00
2018-07-09T21:44:24.721Z,0.00
2018-07-09T21:45:24.710Z,0.00
2018-07-09T21:46:24.760Z,0.00
2018-07-09T21:47:24.687Z,0.00
2018-07-09T21:48:29.774Z,0.00
2018-07-09T21:49:24.666Z,0.00
2018-07-09T21:50:24.660Z,0.00
2018-07-09T21:51:24.712Z,0.00
2018-07-09T21:52:24.640Z,0.00
2018-07-09T21:53:24.632Z,0.00
2018-07-09T21:54:24.624Z,0.00
2018-07-09T21:55:25.519Z,0.00
2018-07-09T21:56:24.671Z,0.00
2018-07-09T21:57:24.590Z,0.00
2018-07-09T21:58:24.574Z,0.00
2018-07-09T21:59:24.558Z,0.00
2018-07-09T22:00:24.558Z,0.00
2018-07-09T22:01:24.616Z,0.00
2018-07-09T22:02:24.534Z,0.00
2018-07-09T22:03:24.522Z,0.00
2018-07-09T22:04:24.513Z,0.00
2018-07-09T22:05:24.500Z,0.00
2018-07-09T22:06:24.581Z,0.00
2018-07-09T22:07:24.508Z,0.00
2018-07-09T22:08:24.470Z,0.00
2018-07-09T22:09:24.461Z,0.00
2018-07-09T22:10:24.447Z,0.00
2018-07-09T22:11:24.508Z,0.00
2018-07-09T22:12:24.426Z,0.00
2018-07-09T22:13:24.417Z,0.00
2018-07-09T22:14:24.411Z,0.00
2018-07-09T22:15:24.393Z,0.00
2018-07-09T22:16:25.086Z,0.00
2018-07-09T22:17:24.373Z,0.00
2018-07-09T22:18:24.362Z,0.00
2018-07-09T22:19:24.354Z,0.00
2018-07-09T22:20:24.340Z,0.00
2018-07-09T22:21:24.408Z,0.00
2018-07-09T22:22:24.322Z,0.00
2018-07-09T22:23:24.309Z,0.00
2018-07-09T22:24:24.298Z,0.00
2018-07-09T22:25:24.308Z,0.00
2018-07-09T22:26:24.349Z,0.00
2018-07-09T22:27:24.270Z,0.00
2018-07-09T22:28:24.258Z,0.00
2018-07-09T22:29:32.455Z,0.00
2018-07-09T22:30:53.511Z,0.00
2018-07-09T22:31:31.747Z,0.00
2018-07-09T22:32:32.465Z,0.00
2018-07-09T22:33:32.366Z,0.00
2018-07-09T22:34:24.275Z,0.00
2018-07-09T22:35:24.186Z,0.00
2018-07-09T22:36:24.242Z,0.00
2018-07-09T22:37:24.259Z,0.00
2018-07-09T22:38:24.179Z,0.00
2018-07-09T22:39:24.146Z,0.00
2018-07-09T22:40:24.135Z,0.00
2018-07-09T22:41:24.206Z,0.00
2018-07-09T22:42:24.110Z,0.00
2018-07-09T22:43:24.144Z,0.00
2018-07-09T22:44:24.088Z,0.00
2018-07-09T22:45:24.080Z,0.00
2018-07-09T22:46:24.142Z,0.00
2018-07-09T22:47:24.055Z,0.00
2018-07-09T22:48:24.063Z,0.00
2018-07-09T22:49:24.040Z,0.00
2018-07-09T22:50:24.027Z,0.00
2018-07-09T22:51:24.154Z,0.00
2018-07-09T22:52:24.005Z,0.00
2018-07-09T22:53:23.991Z,0.00
2018-07-09T22:54:24.685Z,0.00
2018-07-09T22:55:23.979Z,0.00
2018-07-09T22:56:24.030Z,0.00
2018-07-09T22:57:23.947Z,0.00
2018-07-09T22:58:23.951Z,0.00
2018-07-09T22:59:23.932Z,0.00
2018-07-09T23:00:23.928Z,0.00
2018-07-09T23:01:23.978Z,0.00
2018-07-09T23:02:23.977Z,0.00
2018-07-09T23:03:23.886Z,0.00
2018-07-09T23:04:23.881Z,0.00
2018-07-09T23:05:23.873Z,0.00
2018-07-09T23:06:23.919Z,0.00
2018-07-09T23:07:23.863Z,0.00
2018-07-09T23:08:23.836Z,0.00
2018-07-09T23:09:23.822Z,0.00
2018-07-09T23:10:23.812Z,0.00
2018-07-09T23:11:23.904Z,0.00
2018-07-09T23:12:23.797Z,0.00
2018-07-09T23:13:23.784Z,0.00
2018-07-09T23:14:23.771Z,0.00
2018-07-09T23:15:24.676Z,0.00
2018-07-09T23:16:23.822Z,0.00
2018-07-09T23:17:23.745Z,0.00
2018-07-09T23:18:23.729Z,0.00
2018-07-09T23:19:23.715Z,0.00
2018-07-09T23:20:23.707Z,0.00
2018-07-09T23:21:23.765Z,0.00
2018-07-09T23:22:23.690Z,0.00
2018-07-09T23:23:23.676Z,0.00
2018-07-09T23:24:23.666Z,0.00
2018-07-09T23:25:23.657Z,0.00
2018-07-09T23:26:23.643Z,0.00
2018-07-09T23:27:23.698Z,0.00
2018-07-09T23:28:23.629Z,0.00
2018-07-09T23:29:23.616Z,0.00
2018-07-09T23:30:23.607Z,0.00
2018-07-09T23:31:23.596Z,0.00
2018-07-09T23:32:23.654Z,0.00
2018-07-09T23:33:23.574Z,0.00
2018-07-09T23:34:23.565Z,0.00
2018-07-09T23:35:23.547Z,0.00
2018-07-09T23:36:24.181Z,0.00
2018-07-09T23:37:23.598Z,0.00
2018-07-09T23:38:23.516Z,0.00
2018-07-09T23:39:23.637Z,0.00
2018-07-09T23:40:23.499Z,0.00
2018-07-09T23:41:23.485Z,0.00
2018-07-09T23:42:23.541Z,0.00
2018-07-09T23:43:23.467Z,0.00
2018-07-09T23:44:23.460Z,0.00
2018-07-09T23:45:23.444Z,0.00
2018-07-09T23:46:23.435Z,0.00
2018-07-09T23:47:23.496Z,0.00
2018-07-09T23:48:23.416Z,0.00
2018-07-09T23:49:23.405Z,0.00
2018-07-09T23:50:23.396Z,0.00
2018-07-09T23:51:23.386Z,0.00
2018-07-09T23:52:23.436Z,0.00
2018-07-09T23:53:23.388Z,0.00
2018-07-09T23:54:23.356Z,0.00
2018-07-09T23:55:23.335Z,0.00
2018-07-09T23:56:23.336Z,0.00
2018-07-09T23:57:24.247Z,0.00
2018-07-09T23:58:23.362Z,0.00
2018-07-09T23:59:23.305Z,0.00
